Time;durP1;ratioP1;P1;durP2;ratioP2;P2;SDS_P1;SDS_P2;PMS_P1;PMS_P2;Temp;Humidity;BMP_temperature;BMP_pressure;BME280_temperature;BME280_humidity;BME280_pressure;Samples;Min_cycle;Max_cycle;Signal;HPM_P1;HPM_P2
2024/03/22 00:00:55;;;;;;;;;;;;;;;8.37;42.88;94653.41;4190042;28;19969;-69
2024/03/22 00:02:56;;;;;;;;;;;;;;;8.26;42.74;94651.81;4182091;28;20042;-70
2024/03/22 00:04:56;;;;;;;;;;;;;;;8.25;43.36;94651.97;4184950;28;19928;-70
2024/03/22 00:06:57;;;;;;;;;;;;;;;8.14;43.37;94652.97;4189578;28;19926;-70
2024/03/22 00:08:58;;;;;;;;;;;;;;;8.09;43.63;94657.81;4192580;28;20498;-71
2024/03/22 00:10:58;;;;;;;;;;;;;;;8.10;42.97;94647.22;4193160;28;19963;-70
2024/03/22 00:12:59;;;;;;;;;;;;;;;8.21;43.25;94657.44;4193122;28;19946;-70
2024/03/22 00:15:00;;;;;;;;;;;;;;;8.34;43.57;94644.06;4193226;28;19984;-70
2024/03/22 00:17:00;;;;;;;;;;;;;;;8.50;42.93;94653.09;4190818;28;19941;-70
2024/03/22 00:19:01;;;;;;;;;;;;;;;8.65;43.30;94651.59;4193405;28;19920;-70
2024/03/22 00:21:02;;;;;;;;;;;;;;;8.77;42.28;94649.59;4177073;28;20379;-72
2024/03/22 00:23:03;;;;;;;;;;;;;;;8.86;42.66;94647.88;4176793;28;19932;-71
2024/03/22 00:25:06;;;;;;;;;;;;;;;8.88;42.46;94643.31;4186315;28;19925;-70
2024/03/22 00:27:07;;;;;;;;;;;;;;;8.86;42.82;94645.25;4183625;28;20394;-72
2024/03/22 00:29:08;;;;;;;;;;;;;;;8.83;42.82;94646.38;4189034;28;19924;-70
2024/03/22 00:31:09;;;;;;;;;;;;;;;8.82;42.55;94644.75;4175598;28;19925;-71
2024/03/22 00:33:10;;;;;;;;;;;;;;;8.80;43.49;94646.69;4176637;28;19990;-72
2024/03/22 00:35:11;;;;;;;;;;;;;;;8.65;43.44;94653.38;4184162;28;19967;-72
2024/03/22 00:37:11;;;;;;;;;;;;;;;8.57;43.64;94652.34;4176173;28;19920;-69
2024/03/22 00:39:12;;;;;;;;;;;;;;;8.54;43.41;94652.66;4190844;28;20367;-68
2024/03/22 00:41:13;;;;;;;;;;;;;;;8.51;44.12;94654.72;4189438;28;20516;-69
2024/03/22 00:43:14;;;;;;;;;;;;;;;8.45;43.55;94655.31;4191525;28;20363;-71
2024/03/22 00:45:14;;;;;;;;;;;;;;;8.42;43.40;94666.88;4187447;28;19927;-71
2024/03/22 00:47:15;;;;;;;;;;;;;;;8.38;44.35;94662.88;4182876;28;19952;-71
2024/03/22 00:49:15;;;;;;;;;;;;;;;8.41;44.37;94660.03;4193102;28;20333;-71
2024/03/22 00:51:16;;;;;;;;;;;;;;;8.45;44.15;94653.50;4190110;28;20079;-70
2024/03/22 00:53:17;;;;;;;;;;;;;;;8.48;44.06;94650.63;4181214;28;20510;-69
2024/03/22 00:55:18;;;;;;;;;;;;;;;8.52;43.98;94657.19;4177825;28;20363;-69
2024/03/22 00:57:19;;;;;;;;;;;;;;;8.56;43.67;94649.88;4178185;28;20358;-72
2024/03/22 00:59:19;;;;;;;;;;;;;;;8.57;44.35;94652.34;4192351;28;19924;-69
2024/03/22 01:01:20;;;;;;;;;;;;;;;8.57;43.97;94651.53;4191555;28;20376;-71
2024/03/22 01:03:21;;;;;;;;;;;;;;;8.55;44.33;94649.06;4177798;28;19987;-71
2024/03/22 01:07:24;;;;;;;;;;;;;;;8.55;44.17;94653.47;4146621;28;19982;-65
2024/03/22 01:09:24;;;;;;;;;;;;;;;8.51;43.84;94652.91;4164194;28;20904;-64
2024/03/22 01:11:25;;;;;;;;;;;;;;;8.50;43.96;94651.28;4161990;28;19921;-66
2024/03/22 01:13:26;;;;;;;;;;;;;;;8.49;44.32;94652.25;4171496;28;20505;-67
2024/03/22 01:15:26;;;;;;;;;;;;;;;8.50;43.85;94650.47;4174097;28;20004;-65
2024/03/22 01:17:27;;;;;;;;;;;;;;;8.45;44.37;94653.50;4174712;28;19955;-65
2024/03/22 01:19:27;;;;;;;;;;;;;;;8.40;43.34;94650.50;4167363;28;19967;-64
2024/03/22 01:21:28;;;;;;;;;;;;;;;8.38;43.56;94661.06;4165022;28;20394;-66
2024/03/22 01:23:29;;;;;;;;;;;;;;;8.32;43.68;94656.44;4163700;28;20024;-63
2024/03/22 01:25:29;;;;;;;;;;;;;;;8.33;44.38;94662.50;4165475;28;20089;-66
2024/03/22 01:27:30;;;;;;;;;;;;;;;8.30;44.06;94661.00;4174008;28;20025;-66
2024/03/22 01:29:31;;;;;;;;;;;;;;;8.31;44.33;94657.41;4165604;28;20425;-65
2024/03/22 01:31:32;;;;;;;;;;;;;;;8.31;44.74;94659.22;4177110;28;20256;-65
2024/03/22 01:33:32;;;;;;;;;;;;;;;8.29;44.63;94656.75;4166665;28;20002;-66
2024/03/22 01:35:33;;;;;;;;;;;;;;;8.25;44.31;94658.00;4155860;28;19921;-66
2024/03/22 01:37:33;;;;;;;;;;;;;;;8.17;45.11;94656.13;4177123;28;20034;-65
2024/03/22 01:39:34;;;;;;;;;;;;;;;8.12;44.37;94652.31;4167204;28;20028;-64
2024/03/22 01:41:35;;;;;;;;;;;;;;;8.09;44.20;94650.81;4171244;28;19925;-67
2024/03/22 01:43:35;;;;;;;;;;;;;;;8.08;44.59;94649.16;4177566;28;19925;-64
2024/03/22 01:45:36;;;;;;;;;;;;;;;8.10;44.42;94649.81;4166373;28;19927;-67
2024/03/22 01:47:37;;;;;;;;;;;;;;;8.11;44.29;94651.50;4157867;28;20028;-67
2024/03/22 01:49:37;;;;;;;;;;;;;;;8.12;44.69;94650.50;4167988;28;20283;-68
2024/03/22 01:51:38;;;;;;;;;;;;;;;8.13;44.62;94646.94;4174908;28;19971;-66
2024/03/22 01:53:39;;;;;;;;;;;;;;;8.14;44.66;94648.56;4174947;28;19928;-66
2024/03/22 01:55:42;;;;;;;;;;;;;;;8.12;45.23;94645.28;4167173;28;19927;-66
2024/03/22 01:57:43;;;;;;;;;;;;;;;8.10;43.84;94644.63;4157328;28;19921;-67
2024/03/22 01:59:45;;;;;;;;;;;;;;;8.02;44.80;94644.50;4172322;28;20541;-65
2024/03/22 02:01:45;;;;;;;;;;;;;;;7.79;45.26;94644.91;4153933;28;19921;-66
2024/03/22 02:03:46;;;;;;;;;;;;;;;7.83;44.51;94642.00;4167222;28;19985;-66
2024/03/22 02:05:47;;;;;;;;;;;;;;;7.83;44.84;94636.78;4177627;28;20438;-66
2024/03/22 02:07:49;;;;;;;;;;;;;;;7.88;44.77;94645.81;4176297;28;19921;-67
2024/03/22 02:09:50;;;;;;;;;;;;;;;7.92;45.46;94646.38;4173287;28;20299;-66
2024/03/22 02:11:50;;;;;;;;;;;;;;;7.94;44.75;94641.81;4164862;28;19921;-66
2024/03/22 02:13:51;;;;;;;;;;;;;;;7.97;44.75;94644.94;4159025;28;19921;-65
2024/03/22 02:15:52;;;;;;;;;;;;;;;8.00;44.46;94644.69;4174447;28;19997;-66
2024/03/22 02:17:52;;;;;;;;;;;;;;;7.97;44.82;94639.72;4168554;28;20035;-66
2024/03/22 02:19:53;;;;;;;;;;;;;;;7.99;44.89;94636.97;4169331;28;19921;-66
2024/03/22 02:21:53;;;;;;;;;;;;;;;7.97;44.78;94644.94;4176887;28;19925;-66
2024/03/22 02:23:54;;;;;;;;;;;;;;;7.97;44.83;94649.34;4173821;28;19921;-66
2024/03/22 02:25:54;;;;;;;;;;;;;;;7.91;45.58;94645.53;4169182;28;19921;-65
2024/03/22 02:27:55;;;;;;;;;;;;;;;7.85;45.73;94647.88;4167578;28;19921;-67
2024/03/22 02:29:56;;;;;;;;;;;;;;;7.85;45.19;94653.94;4175233;28;19920;-65
2024/03/22 02:31:58;;;;;;;;;;;;;;;7.87;45.47;94648.56;4168270;28;19921;-65
2024/03/22 02:33:58;;;;;;;;;;;;;;;7.86;46.32;94657.38;4177753;28;19920;-65
2024/03/22 02:35:59;;;;;;;;;;;;;;;7.79;46.82;94655.31;4174763;28;19955;-64
2024/03/22 02:37:59;;;;;;;;;;;;;;;7.72;46.91;94659.47;4174392;28;19931;-65
2024/03/22 02:40:00;;;;;;;;;;;;;;;7.60;46.83;94665.81;4173980;28;19927;-65
2024/03/22 02:42:01;;;;;;;;;;;;;;;7.48;47.43;94662.53;4155610;28;19956;-65
2024/03/22 02:44:01;;;;;;;;;;;;;;;7.44;47.15;94662.97;4171108;28;19924;-65
2024/03/22 02:46:02;;;;;;;;;;;;;;;7.44;47.44;94660.38;4177296;28;20407;-66
2024/03/22 02:48:03;;;;;;;;;;;;;;;7.46;47.34;94659.25;4171176;28;19970;-65
2024/03/22 02:50:04;;;;;;;;;;;;;;;7.50;47.87;94665.00;4171251;28;19997;-66
2024/03/22 02:52:04;;;;;;;;;;;;;;;7.44;47.59;94666.38;4174268;28;19931;-67
2024/03/22 02:54:05;;;;;;;;;;;;;;;7.16;48.63;94670.69;4174189;28;19972;-65
2024/03/22 02:56:06;;;;;;;;;;;;;;;6.97;48.83;94676.75;4170925;28;19967;-66
2024/03/22 02:58:07;;;;;;;;;;;;;;;6.95;48.97;94683.88;4169216;28;19925;-64
2024/03/22 03:00:07;;;;;;;;;;;;;;;6.90;49.17;94684.28;4176872;28;19921;-66
2024/03/22 03:02:08;;;;;;;;;;;;;;;6.59;49.68;94686.19;4176137;28;19971;-65
2024/03/22 03:04:08;;;;;;;;;;;;;;;6.64;50.22;94694.41;4163896;28;19964;-65
2024/03/22 03:06:09;;;;;;;;;;;;;;;6.78;49.77;94679.38;4170405;28;19921;-65
2024/03/22 03:08:10;;;;;;;;;;;;;;;6.86;49.27;94684.69;4174868;28;19925;-66
2024/03/22 03:10:11;;;;;;;;;;;;;;;7.00;49.04;94686.06;4169122;28;20343;-65
2024/03/22 03:12:11;;;;;;;;;;;;;;;7.11;49.13;94696.34;4172618;28;19928;-65
2024/03/22 03:14:12;;;;;;;;;;;;;;;7.22;48.94;94685.78;4175838;28;20003;-65
2024/03/22 03:16:12;;;;;;;;;;;;;;;7.31;48.60;94690.16;4170001;28;20311;-66
2024/03/22 03:18:13;;;;;;;;;;;;;;;7.31;48.84;94690.16;4177023;28;20283;-64
2024/03/22 03:20:15;;;;;;;;;;;;;;;7.32;49.39;94697.00;4163385;28;19968;-64
2024/03/22 03:22:16;;;;;;;;;;;;;;;7.34;49.07;94700.31;4167028;28;19990;-65
2024/03/22 03:24:17;;;;;;;;;;;;;;;7.34;49.35;94700.31;4174163;28;19921;-67
2024/03/22 03:26:18;;;;;;;;;;;;;;;7.34;49.12;94700.31;4177211;28;19927;-67
2024/03/22 03:28:19;;;;;;;;;;;;;;;7.34;49.64;94692.47;4176564;28;19927;-67
2024/03/22 03:30:19;;;;;;;;;;;;;;;7.33;49.67;94709.06;4177597;28;19921;-67
2024/03/22 03:32:20;;;;;;;;;;;;;;;7.30;49.53;94704.16;4163541;28;19921;-65
2024/03/22 03:34:22;;;;;;;;;;;;;;;7.19;49.04;94704.28;4169529;28;19931;-67
2024/03/22 03:36:22;;;;;;;;;;;;;;;7.15;49.28;94705.53;4169348;28;20228;-66
2024/03/22 03:38:23;;;;;;;;;;;;;;;7.14;49.20;94709.09;4167459;28;19947;-66
2024/03/22 03:40:24;;;;;;;;;;;;;;;7.11;49.32;94709.38;4156346;28;20066;-66
2024/03/22 03:42:25;;;;;;;;;;;;;;;7.03;49.07;94711.84;4175491;28;19920;-67
2024/03/22 03:44:25;;;;;;;;;;;;;;;7.04;49.35;94714.31;4173739;28;19920;-67
2024/03/22 03:46:26;;;;;;;;;;;;;;;6.93;49.82;94710.06;4175675;28;19932;-67
2024/03/22 03:48:27;;;;;;;;;;;;;;;6.94;49.67;94713.47;4174732;28;20514;-65
2024/03/22 03:50:27;;;;;;;;;;;;;;;6.95;50.10;94715.94;4165241;28;20421;-66
2024/03/22 03:52:28;;;;;;;;;;;;;;;6.90;49.40;94725.94;4159902;28;19928;-65
2024/03/22 03:54:28;;;;;;;;;;;;;;;6.84;49.39;94730.88;4176159;28;19921;-65
2024/03/22 03:56:29;;;;;;;;;;;;;;;6.80;49.97;94737.31;4175403;28;19968;-65
2024/03/22 03:58:30;;;;;;;;;;;;;;;6.78;49.61;94734.84;4168355;28;19944;-66
2024/03/22 04:00:30;;;;;;;;;;;;;;;6.78;49.64;94726.22;4165505;28;19986;-66
2024/03/22 04:02:31;;;;;;;;;;;;;;;6.68;49.67;94729.63;4168918;28;20279;-65
2024/03/22 04:04:32;;;;;;;;;;;;;;;6.61;49.89;94738.13;4175660;28;20275;-68
2024/03/22 04:06:39;;;;;;;;;;;;;;;6.56;50.05;94728.09;4174014;28;20322;-67
2024/03/22 04:08:39;;;;;;;;;;;;;;;6.56;49.92;94736.72;4172953;28;19996;-66
2024/03/22 04:10:41;;;;;;;;;;;;;;;6.58;50.13;94739.19;4165940;28;19921;-64
2024/03/22 04:12:44;;;;;;;;;;;;;;;6.62;50.17;94740.56;4174468;28;19925;-66
2024/03/22 04:14:45;;;;;;;;;;;;;;;6.69;50.00;94741.69;4164872;28;20300;-67
2024/03/22 04:16:45;;;;;;;;;;;;;;;6.70;49.84;94739.91;4166528;28;19927;-63
2024/03/22 04:18:46;;;;;;;;;;;;;;;6.71;49.99;94741.53;4166857;28;19998;-65
2024/03/22 04:20:54;;;;;;;;;;;;;;;6.75;49.62;94742.91;4170080;28;19964;-67
2024/03/22 04:22:55;;;;;;;;;;;;;;;6.78;49.66;94742.66;4173192;28;19921;-66
2024/03/22 04:24:55;;;;;;;;;;;;;;;6.82;49.33;94746.66;4176197;28;20350;-66
2024/03/22 04:26:56;;;;;;;;;;;;;;;6.79;49.39;94749.50;4171769;28;20413;-65
2024/03/22 04:28:56;;;;;;;;;;;;;;;6.82;49.14;94738.84;4173900;28;19947;-67
2024/03/22 04:31:01;;;;;;;;;;;;;;;6.85;49.17;94735.94;4164839;28;19928;-66
2024/03/22 04:33:01;;;;;;;;;;;;;;;6.91;48.75;94745.00;4166965;28;19921;-67
2024/03/22 04:35:02;;;;;;;;;;;;;;;6.89;48.63;94745.13;4168432;28;19937;-67
2024/03/22 04:37:04;;;;;;;;;;;;;;;6.92;48.70;94755.28;4168787;28;19928;-66
2024/03/22 04:39:04;;;;;;;;;;;;;;;6.88;49.11;94761.75;4172368;28;19963;-65
2024/03/22 04:41:05;;;;;;;;;;;;;;;6.75;49.54;94753.34;4173228;28;20059;-65
2024/03/22 04:43:05;;;;;;;;;;;;;;;6.58;50.15;94762.59;4169005;28;19925;-67
2024/03/22 04:45:06;;;;;;;;;;;;;;;6.52;50.20;94760.56;4169298;28;19968;-66
2024/03/22 04:47:07;;;;;;;;;;;;;;;6.48;50.52;94759.19;4170485;28;19921;-64
2024/03/22 04:49:08;;;;;;;;;;;;;;;6.40;51.15;94766.81;4164649;28;19921;-66
2024/03/22 04:51:08;;;;;;;;;;;;;;;6.06;52.18;94770.50;4169220;28;19973;-67
2024/03/22 04:53:09;;;;;;;;;;;;;;;5.82;53.00;94762.97;4168625;28;19925;-65
2024/03/22 04:55:09;;;;;;;;;;;;;;;5.68;53.47;94766.72;4176165;28;20332;-65
2024/03/22 04:57:10;;;;;;;;;;;;;;;5.75;53.77;94773.03;4168373;28;19928;-67
2024/03/22 04:59:10;;;;;;;;;;;;;;;5.87;53.74;94771.22;4172648;28;19929;-65
2024/03/22 05:01:12;;;;;;;;;;;;;;;6.05;52.98;94768.88;4171425;28;19948;-68
2024/03/22 05:03:13;;;;;;;;;;;;;;;6.27;52.44;94764.44;4167403;28;19928;-67
2024/03/22 05:05:14;;;;;;;;;;;;;;;6.31;51.76;94764.03;4158606;28;19921;-67
2024/03/22 05:07:14;;;;;;;;;;;;;;;6.19;51.80;94767.69;4174163;28;20310;-69
2024/03/22 05:09:15;;;;;;;;;;;;;;;6.32;51.93;94770.06;4163232;28;19982;-66
2024/03/22 05:11:16;;;;;;;;;;;;;;;6.38;51.75;94768.72;4177445;28;19929;-68
2024/03/22 05:13:18;;;;;;;;;;;;;;;6.33;52.20;94774.31;4173587;28;20414;-68
2024/03/22 05:15:19;;;;;;;;;;;;;;;6.36;51.90;94777.47;4176673;28;20383;-68
2024/03/22 05:17:20;;;;;;;;;;;;;;;6.49;51.54;94774.63;4178111;28;20032;-67
2024/03/22 05:19:20;;;;;;;;;;;;;;;6.68;51.06;94781.69;4175917;28;19928;-67
2024/03/22 05:21:22;;;;;;;;;;;;;;;6.85;50.66;94780.22;4174142;28;20263;-68
2024/03/22 05:23:23;;;;;;;;;;;;;;;7.03;50.28;94782.97;4166379;28;19921;-67
2024/03/22 05:25:23;;;;;;;;;;;;;;;7.14;49.57;94782.88;4164377;28;20474;-68
2024/03/22 05:27:24;;;;;;;;;;;;;;;7.29;49.62;94791.13;4170849;28;19975;-69
2024/03/22 05:29:25;;;;;;;;;;;;;;;7.42;49.30;94784.78;4168147;28;19921;-70
2024/03/22 05:31:25;;;;;;;;;;;;;;;7.46;48.72;94784.38;4171562;28;19920;-67
2024/03/22 05:33:27;;;;;;;;;;;;;;;7.52;48.96;94783.81;4171675;28;19948;-68
2024/03/22 05:35:27;;;;;;;;;;;;;;;7.41;49.11;94788.38;4173243;28;19975;-68
2024/03/22 05:37:28;;;;;;;;;;;;;;;7.46;48.74;94788.75;4178050;28;20408;-69
2024/03/22 05:39:29;;;;;;;;;;;;;;;7.44;48.88;94795.91;4173401;28;19920;-68
2024/03/22 05:41:29;;;;;;;;;;;;;;;7.41;48.91;94790.97;4171442;28;19987;-66
2024/03/22 05:43:31;;;;;;;;;;;;;;;7.42;48.90;94790.00;4174050;28;19920;-66
2024/03/22 05:45:31;;;;;;;;;;;;;;;7.47;48.80;94796.47;4175901;28;19927;-67
2024/03/22 05:47:32;;;;;;;;;;;;;;;7.20;50.05;94799.72;4153992;28;19929;-68
2024/03/22 05:49:33;;;;;;;;;;;;;;;7.16;49.61;94800.94;4178876;28;19947;-66
2024/03/22 05:51:33;;;;;;;;;;;;;;;7.18;49.62;94809.47;4175521;28;20595;-68
2024/03/22 05:53:34;;;;;;;;;;;;;;;7.33;49.29;94802.88;4168634;28;19960;-69
2024/03/22 05:55:35;;;;;;;;;;;;;;;7.48;49.06;94805.91;4168209;28;19978;-69
2024/03/22 05:57:37;;;;;;;;;;;;;;;7.55;48.89;94808.78;4164937;28;19929;-68
2024/03/22 05:59:38;;;;;;;;;;;;;;;7.45;48.33;94805.38;4170410;28;19962;-68
2024/03/22 06:01:38;;;;;;;;;;;;;;;7.32;48.00;94809.06;4167051;28;19924;-70
2024/03/22 06:03:39;;;;;;;;;;;;;;;7.23;48.32;94809.91;4172783;28;19924;-68
2024/03/22 06:05:40;;;;;;;;;;;;;;;7.16;48.07;94809.63;4161642;28;20483;-70
2024/03/22 06:07:42;;;;;;;;;;;;;;;7.19;48.05;94811.13;4171708;28;19920;-69
2024/03/22 06:09:49;;;;;;;;;;;;;;;7.36;48.30;94807.03;4169406;28;19936;-70
2024/03/22 06:11:50;;;;;;;;;;;;;;;7.65;47.85;94807.00;4169977;28;20502;-69
2024/03/22 06:13:51;;;;;;;;;;;;;;;7.92;47.08;94798.47;4177197;28;19929;-69
2024/03/22 06:15:51;;;;;;;;;;;;;;;8.18;46.78;94795.25;4168230;28;20446;-69
2024/03/22 06:17:53;;;;;;;;;;;;;;;8.34;46.82;94799.84;4173791;28;19920;-67
2024/03/22 06:19:54;;;;;;;;;;;;;;;8.53;45.72;94805.03;4169151;28;19921;-69
2024/03/22 06:21:55;;;;;;;;;;;;;;;8.70;45.17;94797.41;4173297;28;19932;-69
2024/03/22 06:23:55;;;;;;;;;;;;;;;8.86;45.16;94802.00;4172110;28;19921;-69
2024/03/22 06:25:56;;;;;;;;;;;;;;;8.78;45.42;94795.72;4163245;28;20027;-69
2024/03/22 06:27:57;;;;;;;;;;;;;;;8.78;44.10;94806.16;4174322;28;20017;-67
2024/03/22 06:29:57;;;;;;;;;;;;;;;8.58;44.69;94802.84;4176402;28;19936;-67
2024/03/22 06:31:58;;;;;;;;;;;;;;;8.66;45.16;94802.09;4176886;28;19943;-66
2024/03/22 06:34:02;;;;;;;;;;;;;;;8.75;44.88;94798.59;4165147;28;19921;-67
2024/03/22 06:36:03;;;;;;;;;;;;;;;8.69;43.67;94798.38;4166558;28;20252;-69
2024/03/22 06:38:04;;;;;;;;;;;;;;;8.57;43.73;94803.78;4169340;28;19990;-69
2024/03/22 06:40:06;;;;;;;;;;;;;;;8.78;44.66;94805.34;4170021;28;19924;-69
2024/03/22 06:42:06;;;;;;;;;;;;;;;8.74;43.32;94806.59;4172487;28;19927;-67
2024/03/22 06:44:09;;;;;;;;;;;;;;;8.38;44.40;94809.88;4175869;28;19968;-70
2024/03/22 06:46:09;;;;;;;;;;;;;;;8.15;45.11;94814.63;4164581;28;19925;-71
2024/03/22 06:48:10;;;;;;;;;;;;;;;8.25;44.92;94816.38;4173597;28;19936;-69
2024/03/22 06:50:11;;;;;;;;;;;;;;;8.53;45.03;94817.28;4170999;28;19975;-69
2024/03/22 06:52:11;;;;;;;;;;;;;;;8.82;44.29;94817.16;4163340;28;21878;-68
2024/03/22 06:54:12;;;;;;;;;;;;;;;9.13;44.51;94820.25;4172479;28;19920;-68
2024/03/22 06:56:12;;;;;;;;;;;;;;;9.38;43.60;94825.75;4170991;28;20676;-68
2024/03/22 06:58:13;;;;;;;;;;;;;;;9.55;43.11;94819.72;4166087;28;20415;-69
2024/03/22 07:00:14;;;;;;;;;;;;;;;9.56;42.45;94823.97;4159887;28;19925;-68
2024/03/22 07:02:14;;;;;;;;;;;;;;;9.46;42.57;94827.63;4172109;28;19925;-67
2024/03/22 07:04:15;;;;;;;;;;;;;;;9.17;43.61;94828.66;4158895;28;20158;-67
2024/03/22 07:06:15;;;;;;;;;;;;;;;9.23;43.33;94831.50;4178186;28;20667;-66
2024/03/22 07:08:16;;;;;;;;;;;;;;;9.41;42.80;94828.06;4173017;28;20012;-69
2024/03/22 07:10:17;;;;;;;;;;;;;;;9.53;42.98;94826.03;4172573;28;19920;-70
2024/03/22 07:12:17;;;;;;;;;;;;;;;9.39;42.40;94825.59;4169953;28;19921;-69
2024/03/22 07:14:18;;;;;;;;;;;;;;;9.30;42.35;94829.09;4172034;28;19921;-67
2024/03/22 07:16:19;;;;;;;;;;;;;;;9.34;42.34;94833.06;4173258;28;19925;-67
2024/03/22 07:18:19;;;;;;;;;;;;;;;9.64;42.54;94824.03;4167692;28;19921;-68
2024/03/22 07:20:20;;;;;;;;;;;;;;;9.87;42.03;94823.56;4167790;28;19924;-69
2024/03/22 07:22:21;;;;;;;;;;;;;;;9.76;42.04;94829.84;4173405;28;19921;-67
2024/03/22 07:24:23;;;;;;;;;;;;;;;9.61;42.08;94837.44;4171437;28;20346;-72
2024/03/22 07:26:24;;;;;;;;;;;;;;;9.39;43.25;94836.06;4172564;28;20480;-67
2024/03/22 07:28:25;;;;;;;;;;;;;;;9.66;43.13;94826.50;4173214;28;20007;-67
2024/03/22 07:30:26;;;;;;;;;;;;;;;9.91;42.62;94829.31;4173633;28;19970;-69
2024/03/22 07:32:27;;;;;;;;;;;;;;;9.68;42.46;94826.34;4177478;28;20287;-71
2024/03/22 07:34:27;;;;;;;;;;;;;;;9.63;42.14;94827.59;4173122;28;19990;-68
2024/03/22 07:36:28;;;;;;;;;;;;;;;9.73;43.23;94834.56;4172570;28;19947;-68
2024/03/22 07:38:28;;;;;;;;;;;;;;;9.90;42.57;94835.53;4159431;28;20418;-69
2024/03/22 07:40:29;;;;;;;;;;;;;;;9.83;42.78;94828.28;4164106;28;20296;-68
2024/03/22 07:42:30;;;;;;;;;;;;;;;9.84;42.62;94840.38;4176602;28;20015;-68
2024/03/22 07:44:31;;;;;;;;;;;;;;;9.73;42.92;94832.78;4175888;28;20452;-70
2024/03/22 07:46:31;;;;;;;;;;;;;;;9.77;42.77;94828.88;4176559;28;19925;-69
2024/03/22 07:48:32;;;;;;;;;;;;;;;9.97;43.04;94828.72;4173091;28;19963;-68
2024/03/22 07:50:33;;;;;;;;;;;;;;;10.10;42.51;94834.38;4167479;28;20929;-68
2024/03/22 07:52:34;;;;;;;;;;;;;;;9.80;42.74;94833.00;4176806;28;20168;-68
2024/03/22 07:54:35;;;;;;;;;;;;;;;9.46;43.55;94832.84;4176744;28;19925;-70
2024/03/22 07:56:36;;;;;;;;;;;;;;;9.42;43.72;94835.78;4173565;28;20310;-70
2024/03/22 07:58:36;;;;;;;;;;;;;;;9.62;43.38;94833.00;4175978;28;19924;-68
2024/03/22 08:00:37;;;;;;;;;;;;;;;9.62;43.35;94833.00;4177470;28;20283;-66
2024/03/22 08:02:37;;;;;;;;;;;;;;;9.51;43.25;94838.47;4166154;28;19939;-69
2024/03/22 08:04:38;;;;;;;;;;;;;;;9.64;43.19;94838.91;4169404;28;20383;-69
2024/03/22 08:06:39;;;;;;;;;;;;;;;9.88;42.87;94840.91;4175424;28;20408;-68
2024/03/22 08:08:39;;;;;;;;;;;;;;;9.87;42.88;94835.81;4173377;28;19921;-71
2024/03/22 08:10:40;;;;;;;;;;;;;;;9.66;42.36;94831.75;4175427;28;20007;-70
2024/03/22 08:12:40;;;;;;;;;;;;;;;9.91;42.61;94839.78;4168121;28;19921;-68
2024/03/22 08:14:41;;;;;;;;;;;;;;;9.97;42.38;94829.53;4173742;28;19921;-69
2024/03/22 08:16:42;;;;;;;;;;;;;;;10.06;42.27;94830.41;4176468;28;19967;-67
2024/03/22 08:18:42;;;;;;;;;;;;;;;10.15;41.87;94829.50;4168960;28;19951;-69
2024/03/22 08:20:44;;;;;;;;;;;;;;;10.33;41.64;94829.50;4150235;28;19925;-67
2024/03/22 08:22:44;;;;;;;;;;;;;;;10.21;41.26;94830.69;4167391;28;19987;-69
2024/03/22 08:24:45;;;;;;;;;;;;;;;10.33;41.79;94828.69;4170045;28;19971;-68
2024/03/22 08:26:46;;;;;;;;;;;;;;;10.65;40.95;94826.22;4165680;28;20011;-68
2024/03/22 08:28:48;;;;;;;;;;;;;;;11.02;40.47;94822.44;4148228;28;19928;-69
2024/03/22 08:30:48;;;;;;;;;;;;;;;10.42;40.33;94825.13;4171669;28;19921;-68
2024/03/22 08:32:49;;;;;;;;;;;;;;;10.39;40.81;94823.63;4171271;28;19963;-70
2024/03/22 08:34:50;;;;;;;;;;;;;;;10.34;41.05;94825.06;4165647;28;19921;-70
2024/03/22 08:36:52;;;;;;;;;;;;;;;10.17;41.03;94819.69;4166650;28;19952;-69
2024/03/22 08:38:53;;;;;;;;;;;;;;;10.45;40.62;94827.41;4176046;28;19927;-69
2024/03/22 08:40:53;;;;;;;;;;;;;;;10.65;40.36;94822.78;4163475;28;20467;-69
2024/03/22 08:42:54;;;;;;;;;;;;;;;10.81;40.30;94822.03;4170800;28;19929;-68
2024/03/22 08:44:56;;;;;;;;;;;;;;;10.74;40.05;94827.09;4172097;28;19936;-68
2024/03/22 08:46:56;;;;;;;;;;;;;;;10.58;39.88;94827.84;4176574;28;19920;-68
2024/03/22 08:48:57;;;;;;;;;;;;;;;10.42;39.71;94836.41;4154720;28;19944;-68
2024/03/22 08:50:58;;;;;;;;;;;;;;;10.70;39.63;94838.84;4178551;28;19920;-68
2024/03/22 08:52:58;;;;;;;;;;;;;;;11.13;39.55;94831.00;4165667;28;20401;-68
2024/03/22 08:54:59;;;;;;;;;;;;;;;11.20;38.60;94829.38;4163722;28;20407;-68
2024/03/22 08:57:00;;;;;;;;;;;;;;;10.96;38.38;94825.69;4176287;28;19920;-70
2024/03/22 08:59:01;;;;;;;;;;;;;;;11.10;39.06;94826.91;4180632;28;20351;-67
2024/03/22 09:01:01;;;;;;;;;;;;;;;11.42;38.93;94828.81;4174499;28;20019;-68
2024/03/22 09:03:02;;;;;;;;;;;;;;;11.52;38.45;94828.63;4172177;28;20403;-69
2024/03/22 09:05:02;;;;;;;;;;;;;;;11.74;37.97;94829.81;4175056;28;19976;-67
2024/03/22 09:07:04;;;;;;;;;;;;;;;11.79;37.49;94826.72;4171118;28;20031;-70
2024/03/22 09:09:04;;;;;;;;;;;;;;;11.70;37.17;94820.63;4148671;28;19929;-71
2024/03/22 09:11:05;;;;;;;;;;;;;;;11.46;36.82;94819.63;4173994;28;20527;-69
2024/03/22 09:13:05;;;;;;;;;;;;;;;11.73;37.36;94816.88;4168222;28;19920;-71
2024/03/22 09:15:07;;;;;;;;;;;;;;;12.15;36.34;94816.72;4177511;28;19979;-69
2024/03/22 09:17:07;;;;;;;;;;;;;;;12.35;36.77;94813.75;4169923;28;20351;-70
2024/03/22 09:19:10;;;;;;;;;;;;;;;12.54;36.53;94807.28;4175160;28;19921;-69
2024/03/22 09:21:10;;;;;;;;;;;;;;;12.85;36.38;94810.00;4174679;28;20367;-69
2024/03/22 09:23:11;;;;;;;;;;;;;;;12.86;35.30;94803.72;4152487;28;20064;-69
2024/03/22 09:25:12;;;;;;;;;;;;;;;12.83;35.87;94799.63;4180296;28;19921;-67
2024/03/22 09:27:12;;;;;;;;;;;;;;;12.92;35.55;94803.06;4179934;28;20023;-70
2024/03/22 09:29:13;;;;;;;;;;;;;;;12.77;35.74;94796.88;4171449;28;19926;-71
2024/03/22 09:31:14;;;;;;;;;;;;;;;12.68;35.65;94796.91;4165024;28;19920;-69
2024/03/22 09:33:14;;;;;;;;;;;;;;;12.72;36.00;94792.13;4158889;28;19925;-69
2024/03/22 09:35:15;;;;;;;;;;;;;;;12.88;35.75;94799.13;4176473;28;20411;-67
2024/03/22 09:37:15;;;;;;;;;;;;;;;13.10;35.38;94794.94;4175653;28;20002;-70
2024/03/22 09:39:16;;;;;;;;;;;;;;;13.19;34.89;94793.09;4162924;28;20510;-69
2024/03/22 09:41:22;;;;;;;;;;;;;;;13.03;35.10;94789.53;4157821;28;19971;-70
2024/03/22 09:43:23;;;;;;;;;;;;;;;12.67;35.17;94791.84;4157639;28;20015;-68
2024/03/22 09:45:24;;;;;;;;;;;;;;;12.11;36.41;94794.41;4174129;28;19928;-69
2024/03/22 09:47:24;;;;;;;;;;;;;;;12.10;36.29;94798.00;4177519;28;19924;-70
2024/03/22 09:49:25;;;;;;;;;;;;;;;12.10;36.67;94792.75;4154411;28;19929;-69
2024/03/22 09:51:25;;;;;;;;;;;;;;;12.22;37.01;94795.88;4165534;28;19928;-68
2024/03/22 09:53:26;;;;;;;;;;;;;;;12.68;36.41;94794.28;4172564;28;19920;-68
2024/03/22 09:55:27;;;;;;;;;;;;;;;13.02;35.82;94790.53;4154741;28;20404;-70
2024/03/22 09:57:27;;;;;;;;;;;;;;;13.34;35.06;94786.13;4172106;28;20318;-67
2024/03/22 09:59:28;;;;;;;;;;;;;;;13.41;35.06;94788.88;4170969;28;19975;-70
2024/03/22 10:01:29;;;;;;;;;;;;;;;13.36;35.12;94785.94;4179449;28;19964;-70
2024/03/22 10:03:29;;;;;;;;;;;;;;;13.43;35.11;94777.16;4161970;28;20474;-68
2024/03/22 10:05:30;;;;;;;;;;;;;;;12.46;36.02;94787.94;4175376;28;20533;-69
2024/03/22 10:07:31;;;;;;;;;;;;;;;12.47;36.22;94783.50;4176639;28;19951;-71
2024/03/22 10:09:32;;;;;;;;;;;;;;;12.31;36.25;94780.94;4153239;28;19925;-70
2024/03/22 10:11:34;;;;;;;;;;;;;;;12.41;36.31;94778.91;4162675;28;20414;-70
2024/03/22 10:13:34;;;;;;;;;;;;;;;12.19;36.97;94773.38;4168994;28;19955;-69
2024/03/22 10:15:35;;;;;;;;;;;;;;;12.46;36.68;94774.00;4167517;28;20483;-69
2024/03/22 10:17:36;;;;;;;;;;;;;;;12.82;36.25;94776.13;4177350;28;20395;-69
2024/03/22 10:19:37;;;;;;;;;;;;;;;13.02;35.83;94781.81;4161796;28;19928;-69
2024/03/22 10:21:37;;;;;;;;;;;;;;;13.07;35.42;94775.03;4173497;28;20026;-71
2024/03/22 10:23:38;;;;;;;;;;;;;;;13.25;35.32;94777.44;4173098;28;19935;-71
2024/03/22 10:25:38;;;;;;;;;;;;;;;13.30;35.19;94769.84;4175143;28;19921;-69
2024/03/22 10:27:40;;;;;;;;;;;;;;;13.24;35.30;94769.69;4167549;28;19921;-70
2024/03/22 10:29:41;;;;;;;;;;;;;;;13.49;35.17;94765.94;4176595;28;19971;-67
2024/03/22 10:31:42;;;;;;;;;;;;;;;13.29;34.70;94762.13;4173310;28;19920;-70
2024/03/22 10:33:44;;;;;;;;;;;;;;;13.29;35.47;94759.50;4170463;28;19928;-71
2024/03/22 10:35:45;;;;;;;;;;;;;;;13.66;35.26;94760.59;4170524;28;20029;-69
2024/03/22 10:37:45;;;;;;;;;;;;;;;13.94;34.30;94745.03;4150323;28;19924;-69